Latest Weather Observations for Canterbury

IDN60901

Issued at 5:11 pm EST Tuesday 26 September 2017 (issued every 10 minutes, with the page automatically refreshed every 10 minutes)

About weather observations | Map of Sydney area stations | Latest observations for Sydney area | Other Formats
Station Details ID: 066194 Name: CANTERBURY RACECOURSE AWS Lat: -33.91 Lon: 151.11 Height: 3.0 m
Data from the previous 72 hours. | See also: Recent months at Canterbury
Date/Time
EST
Temp
°C
App
Temp
°C
Dew
Point
°C
Rel
Hum
%
Delta-T
°C
Wind Press
QNH
hPa
Press
MSL
hPa
Rain since
9am
mm
Dir  Spd
km/h
Gust
km/h
Spd
kts
Gust
kts
26/05:00pm 16.3 12.0 8.0 58 4.2 SE 20 30 11 16 - - 0.0
26/04:30pm 17.1 12.3 9.0 59 4.2 SE 24 33 13 18 - - 0.0
26/04:00pm 17.4 12.6 8.8 57 4.4 SE 24 39 13 21 - - 0.0
26/03:30pm 17.7 12.2 9.3 58 4.4 SE 28 39 15 21 - - 0.0
26/03:00pm 18.1 13.0 7.8 51 5.2 SE 24 33 13 18 - - 0.0
26/02:30pm 18.4 13.0 8.1 51 5.3 SE 26 35 14 19 - - 0.0
26/02:00pm 18.4 13.4 8.1 51 5.3 SE 24 33 13 18 - - 0.0
26/01:30pm 18.2 12.6 7.3 49 5.5 SE 26 39 14 21 - - 0.0
26/01:00pm 18.3 13.1 7.1 48 5.6 SE 24 35 13 19 - - 0.0
26/12:30pm 19.6 13.8 4.5 37 7.3 SE 24 33 13 18 - - 0.0
26/12:00pm 19.2 13.3 3.8 36 7.3 SE 24 32 13 17 - - 0.0
26/11:30am 19.1 13.6 2.0 32 7.8 SE 20 30 11 16 - - 0.0
26/11:00am 20.5 15.9 1.4 28 8.7 WSW 15 28 8 15 - - 0.0
26/10:30am 20.3 16.4 1.2 28 8.7 SW 11 20 6 11 - - 0.0
26/10:00am 19.7 15.4 0.7 28 8.5 SW 13 30 7 16 - - 0.0
26/09:30am 18.7 13.3 1.2 31 7.8 WSW 19 30 10 16 - - 0.0
26/09:00am 18.1 13.6 2.0 34 7.3 SW 15 22 8 12 - - 0.0
26/08:30am 17.6 13.6 2.8 37 6.8 SW 13 20 7 11 - - 0.0
26/08:00am 16.6 13.5 3.7 42 6.0 WSW 9 13 5 7 - - 0.0
26/07:30am 15.2 12.7 4.0 47 5.2 WNW 6 11 3 6 - - 0.0
26/07:00am 12.5 11.4 5.2 61 3.4 CALM 0 0 0 0 - - 0.0
26/06:30am 8.2 7.0 4.6 78 1.6 CALM 0 6 0 3 - - 0.0
26/06:00am 6.9 5.6 4.2 83 1.2 CALM 0 0 0 0 - - 0.0
26/05:30am 6.8 5.4 3.6 80 1.4 CALM 0 0 0 0 - - 0.0
26/05:00am 7.2 5.9 4.2 81 1.3 CALM 0 0 0 0 - - 0.0
26/04:30am 7.1 5.7 3.3 77 1.6 CALM 0 0 0 0 - - 0.0
26/04:00am 7.3 6.0 3.9 79 1.5 CALM 0 0 0 0 - - 0.0
26/03:30am 8.3 6.9 3.6 72 2.0 CALM 0 0 0 0 - - 0.0
26/03:00am 8.7 7.4 4.1 73 2.0 CALM 0 0 0 0 - - 0.0
26/02:30am 9.3 8.3 5.5 77 1.7 CALM 0 0 0 0 - - 0.0
26/02:00am 9.9 8.4 3.2 63 2.9 CALM 0 0 0 0 - - 0.0
26/01:30am 9.6 8.0 2.7 62 2.9 CALM 0 0 0 0 - - 0.0
26/01:00am 10.9 9.4 3.0 58 3.4 CALM 0 0 0 0 - - 0.0
26/12:30am 11.1 10.0 5.2 67 2.7 CALM 0 0 0 0 - - 0.0
26/12:00am 12.7 10.4 2.6 50 4.4 NNW 4 7 2 4 - - 0.0
 
Date/Time
EST
Temp
°C
App
Temp
°C
Dew
Point
°C
Rel
Hum
%
Delta-T
°C
Wind Press
QNH
hPa
Press
MSL
hPa
Rain since
9am
mm
Dir  Spd
km/h
Gust
km/h
Spd
kts
Gust
kts
25/11:30pm 15.0 12.2 2.2 42 5.7 NW 6 9 3 5 - - 0.0
25/11:00pm 15.7 12.4 2.2 40 6.0 NW 9 15 5 8 - - 0.0
25/10:30pm 16.5 12.7 1.8 37 6.5 WNW 11 19 6 10 - - 0.0
25/10:00pm 16.5 12.7 1.8 37 6.5 WNW 11 15 6 8 - - 0.0
25/09:30pm 17.1 13.3 1.9 36 6.8 W 11 20 6 11 - - 0.0
25/09:00pm 17.7 13.5 1.7 34 7.2 WNW 13 20 7 11 - - 0.0
25/08:30pm 18.0 13.4 1.5 33 7.4 WNW 15 24 8 13 - - 0.0
25/08:00pm 18.4 14.1 1.0 31 7.7 W 13 20 7 11 - - 0.0
25/07:30pm 18.9 14.2 1.0 30 8.0 WNW 15 22 8 12 - - 0.0
25/07:00pm 19.4 14.4 1.4 30 8.1 WNW 17 30 9 16 - - 0.0
25/06:30pm 19.9 14.8 0.9 28 8.5 W 17 26 9 14 - - 0.0
25/06:00pm 20.6 14.6 1.0 27 8.9 WNW 22 35 12 19 - - 0.0
25/05:30pm 21.4 14.9 0.6 25 9.4 W 24 37 13 20 - - 0.0
25/05:00pm 22.1 15.6 0.6 24 9.8 WNW 24 37 13 20 - - 0.0
25/04:30pm 22.3 15.9 0.8 24 9.8 NW 24 39 13 21 - - 0.0
25/04:08pm 23.3 16.0 -0.2 21 10.6 W 28 46 15 25 - - 0.0
25/04:00pm 22.9 15.2 0.1 22 10.3 WNW 30 46 16 25 - - 0.0
25/03:31pm 22.7 15.3 -0.7 21 10.4 WNW 28 52 15 28 - - 0.0
25/03:30pm 23.0 16.0 -0.5 21 10.5 WNW 26 50 14 27 - - 0.0
25/03:00pm 23.2 15.8 -1.0 20 10.8 NW 28 54 15 29 - - 0.0
25/02:43pm 24.3 16.2 -0.1 20 11.1 NW 32 56 17 30 - - 0.0
25/02:30pm 25.2 18.2 -0.8 18 11.8 W 26 41 14 22 - - 0.0
25/02:00pm 25.2 18.0 -2.4 16 12.2 WSW 26 39 14 21 - - 0.0
25/01:30pm 26.3 19.7 -0.7 17 12.4 W 24 46 13 25 - - 0.0
25/01:02pm 25.9 18.0 -1.8 16 12.4 W 30 48 16 26 - - 0.0
25/01:00pm 26.4 18.5 -1.4 16 12.6 WSW 30 44 16 24 - - 0.0
25/12:30pm 25.5 18.4 -1.3 17 12.1 WSW 26 39 14 21 - - 0.0
25/12:11pm 25.2 17.8 -0.8 18 11.8 WNW 28 48 15 26 - - 0.0
25/12:00pm 25.4 18.8 -0.6 18 11.9 W 24 35 13 19 - - 0.0
25/11:30am 24.9 18.1 -1.8 17 11.9 WSW 24 46 13 25 - - 0.0
25/11:00am 24.6 18.3 -1.3 18 11.6 W 22 33 12 18 - - 0.0
25/10:30am 24.2 17.9 -0.9 19 11.3 WNW 22 37 12 20 - - 0.0
25/10:00am 23.2 17.9 -0.3 21 10.6 WNW 17 43 9 23 - - 0.0
25/09:30am 22.5 16.9 1.5 25 9.7 W 20 30 11 16 - - 0.0
25/09:00am 21.8 17.8 0.4 24 9.7 WNW 11 20 6 11 - - 0.0
25/08:30am 21.1 17.6 1.4 27 9.0 WSW 9 13 5 7 - - 0.0
25/08:00am 19.9 18.7 4.4 36 7.5 CALM 0 0 0 0 - - 0.0
25/07:30am 17.4 15.6 3.7 40 6.4 N 2 7 1 4 - - 0.0
25/07:00am 13.8 13.1 6.9 63 3.3 CALM 0 0 0 0 - - 0.0
25/06:30am 10.4 9.3 5.0 69 2.4 CALM 0 0 0 0 - - 0.0
25/06:00am 9.0 8.2 6.3 83 1.2 CALM 0 0 0 0 - - 0.0
25/05:30am 9.1 7.9 4.7 74 2.0 CALM 0 0 0 0 - - 0.0
25/05:00am 9.6 8.4 4.8 72 2.1 CALM 0 0 0 0 - - 0.0
25/04:30am 9.2 8.0 4.6 73 2.0 CALM 0 0 0 0 - - 0.0
25/04:00am 9.3 8.4 5.9 79 1.6 CALM 0 0 0 0 - - 0.0
25/03:30am 9.6 8.7 6.1 79 1.6 CALM 0 0 0 0 - - 0.0
25/03:00am 10.1 9.4 7.0 81 1.5 CALM 0 0 0 0 - - 0.0
25/02:30am 10.4 9.5 6.0 74 2.0 CALM 0 0 0 0 - - 0.0
25/02:00am 10.3 9.5 6.3 76 1.9 CALM 0 0 0 0 - - 0.0
25/01:30am 10.9 10.0 6.1 72 2.2 CALM 0 0 0 0 - - 0.0
25/01:00am 11.2 10.7 7.9 80 1.6 CALM 0 0 0 0 - - 0.0
25/12:30am 11.7 11.1 7.4 75 2.1 CALM 0 0 0 0 - - 0.0
25/12:00am 11.5 10.8 7.0 74 2.1 CALM 0 0 0 0 - - 0.0
 
Date/Time
EST
Temp
°C
App
Temp
°C
Dew
Point
°C
Rel
Hum
%
Delta-T
°C
Wind Press
QNH
hPa
Press
MSL
hPa
Rain since
9am
mm
Dir  Spd
km/h
Gust
km/h
Spd
kts
Gust
kts
24/11:30pm 11.8 11.0 6.5 70 2.5 CALM 0 0 0 0 - - 0.0
24/11:00pm 12.2 11.2 5.8 65 3.0 CALM 0 0 0 0 - - 0.0
24/10:30pm 12.4 11.8 7.5 72 2.4 CALM 0 0 0 0 - - 0.0
24/10:00pm 12.9 11.5 3.8 54 4.1 CALM 0 0 0 0 - - 0.0
24/09:30pm 12.9 11.6 4.3 56 3.9 CALM 0 0 0 0 - - 0.0
24/09:00pm 14.3 13.2 5.1 54 4.3 CALM 0 0 0 0 - - 0.0
24/08:30pm 15.0 13.7 4.1 48 5.0 CALM 0 0 0 0 - - 0.0
24/08:00pm 16.5 14.9 2.5 39 6.3 CALM 0 0 0 0 - - 0.0
24/07:30pm 17.7 14.9 2.1 35 7.0 NW 6 7 3 4 - - 0.0
24/07:00pm 22.2 19.8 -0.5 22 10.1 W 2 11 1 6 - - 0.0
24/06:30pm 23.8 19.9 -1.2 19 11.1 W 9 15 5 8 - - 0.0
24/06:00pm 25.2 19.7 -2.4 16 12.2 W 17 30 9 16 - - 0.0
24/05:30pm 26.0 20.2 -1.7 16 12.4 W 19 33 10 18 - - 0.0
24/05:00pm 26.8 20.7 -2.0 15 12.9 WNW 20 32 11 17 - - 0.0
24/04:30pm 27.2 20.3 -2.6 14 13.3 WNW 24 46 13 25 - - 0.0
24/04:00pm 27.4 21.2 -0.6 16 13.0 W 22 39 12 21 - - 0.0
24/03:30pm 27.2 21.5 -0.8 16 12.9 W 19 32 10 17 - - 0.0
24/03:00pm 27.7 21.4 -1.3 15 13.3 W 22 41 12 22 - - 0.0
24/02:30pm 27.5 20.3 -2.3 14 13.4 WSW 26 43 14 23 - - 0.0
24/02:07pm 28.0 20.2 -1.0 15 13.4 W 30 48 16 26 - - 0.0
24/02:00pm 28.4 20.5 -1.6 14 13.8 W 30 46 16 25 - - 0.0
24/01:58pm 28.4 21.0 -0.7 15 13.6 W 28 46 15 25 - - 0.0
24/01:30pm 28.6 21.8 -1.5 14 13.8 W 24 37 13 20 - - 0.0
24/01:00pm 28.3 21.6 -0.8 15 13.5 W 24 39 13 21 - - 0.0
24/12:30pm 28.2 21.5 -0.9 15 13.5 WNW 24 41 13 22 - - 0.0
24/12:00pm 27.4 20.0 -0.6 16 13.0 WNW 28 41 15 22 - - 0.0
24/11:50am 27.7 20.5 0.5 17 12.9 WNW 28 48 15 26 - - 0.0
24/11:30am 28.4 22.0 1.0 17 13.2 W 24 39 13 21 - - 0.0
24/11:00am 27.1 22.5 1.5 19 12.3 WNW 15 26 8 14 - - 0.0
24/10:30am 27.3 21.8 0.9 18 12.6 W 19 28 10 15 - - 0.0
24/10:00am 27.6 21.9 2.6 20 12.3 WSW 22 33 12 18 - - 0.0
24/09:30am 26.9 20.6 1.3 19 12.2 WSW 24 35 13 19 - - 0.0
24/09:00am 26.8 21.6 3.3 22 11.6 WSW 20 35 11 19 - - 0.0
24/08:30am 26.1 21.6 2.1 21 11.6 WSW 15 26 8 14 - - 0.0
24/08:00am 25.2 20.7 2.0 22 11.1 SW 15 24 8 13 - - 0.0
24/07:30am 25.0 20.4 3.6 25 10.5 SW 17 28 9 15 - - 0.0
24/07:00am 25.6 21.0 3.6 24 10.9 SW 17 28 9 15 - - 0.0
24/06:30am 27.6 22.6 1.2 18 12.7 WSW 17 28 9 15 - - 0.0
24/06:00am 27.7 22.3 1.2 18 12.7 WNW 19 32 10 17 - - 0.0
24/05:30am 28.2 22.6 0.0 16 13.3 NW 19 32 10 17 - - 0.0
24/05:00am 28.5 22.6 -0.6 15 13.6 WNW 20 39 11 21 - - 0.0
24/04:30am 26.3 22.0 0.9 19 12.0 WNW 13 17 7 9 - - 0.0
24/04:00am 26.5 22.1 0.3 18 12.3 NNW 13 20 7 11 - - 0.0
24/03:30am 27.5 23.1 0.3 17 12.8 NW 13 20 7 11 - - 0.0
24/03:00am 28.7 23.0 -0.5 15 13.7 NW 19 30 10 16 - - 0.0
24/02:30am 28.6 23.3 -0.5 15 13.6 NW 17 26 9 14 - - 0.0
24/02:00am 28.9 23.6 -0.3 15 13.8 NNW 17 24 9 13 - - 0.0
24/01:30am 27.8 23.0 0.5 17 12.9 NNW 15 20 8 11 - - 0.0
24/01:00am 28.1 23.0 0.8 17 13.0 N 17 20 9 11 - - 0.0
24/12:30am 27.6 24.1 1.2 18 12.7 NNW 9 17 5 9 - - 0.0
24/12:00am 28.8 24.4 0.5 16 13.5 NNW 13 22 7 12 - - 0.0
 
Date/Time
EST
Temp
°C
App
Temp
°C
Dew
Point
°C
Rel
Hum
%
Delta-T
°C
Wind Press
QNH
hPa
Press
MSL
hPa
Rain since
9am
mm
Dir  Spd
km/h
Gust
km/h
Spd
kts
Gust
kts
23/11:30pm 29.6 24.0 0.2 15 14.0 NNW 19 26 10 14 - - 0.0
23/11:00pm 29.4 24.5 1.8 17 13.5 NNW 17 26 9 14 - - 0.0
23/10:30pm 29.5 24.2 1.9 17 13.6 NNW 19 33 10 18 - - 0.0
23/10:00pm 29.6 24.9 1.1 16 13.8 NNW 15 22 8 12 - - 0.0
23/09:30pm 27.5 23.2 1.1 18 12.6 N 13 20 7 11 - - 0.0
23/09:00pm 28.4 23.7 1.0 17 13.2 NNW 15 20 8 11 - - 0.0
23/08:30pm 26.3 22.7 2.9 22 11.5 N 11 17 6 9 - - 0.0
23/08:00pm 22.5 20.0 4.5 31 8.8 NNE 7 9 4 5 - - 0.0
23/07:30pm 24.8 22.0 5.1 28 9.9 NNE 9 15 5 8 - - 0.0
23/07:00pm 25.5 22.3 5.1 27 10.3 NNE 11 17 6 9 - - 0.0
23/06:30pm 26.3 23.0 6.4 28 10.4 NNE 13 17 7 9 - - 0.0
23/06:00pm 26.9 23.6 6.3 27 10.8 NNE 13 19 7 10 - - 0.0
23/05:30pm 28.1 24.4 6.2 25 11.5 NE 15 22 8 12 - - 0.0

Latest Capital City Observations: Canberra | Sydney | Melbourne | Brisbane | Adelaide | Perth | Hobart | Darwin

Other Formats:

Comma delimited format used in spreadsheet applications
http://www.bom.gov.au/fwo/IDN60901/IDN60901.94766.axf

JavaScript Object Notation format (JSON) in row-major order
http://www.bom.gov.au/fwo/IDN60901/IDN60901.94766.json